sensor_id;sensor_type;location;lat;lon;timestamp;P1;durP1;ratioP1;P2;durP2;ratioP2
67503;SDS011;54351;49.108;1.502;2023-02-01T00:01:42;545.47;;;502.15;;
67503;SDS011;54351;49.108;1.502;2023-02-01T00:04:09;596.10;;;548.38;;
67503;SDS011;54351;49.108;1.502;2023-02-01T00:06:35;615.40;;;567.15;;
67503;SDS011;54351;49.108;1.502;2023-02-01T00:09:01;535.40;;;493.13;;
67503;SDS011;54351;49.108;1.502;2023-02-01T00:11:27;534.75;;;493.20;;
67503;SDS011;54351;49.108;1.502;2023-02-01T00:13:53;561.38;;;517.00;;
67503;SDS011;54351;49.108;1.502;2023-02-01T00:16:21;624.50;;;576.88;;
67503;SDS011;54351;49.108;1.502;2023-02-01T00:18:48;608.55;;;560.55;;
67503;SDS011;54351;49.108;1.502;2023-02-01T00:21:15;635.72;;;586.45;;
67503;SDS011;54351;49.108;1.502;2023-02-01T00:23:41;540.22;;;497.98;;
67503;SDS011;54351;49.108;1.502;2023-02-01T00:26:10;626.83;;;578.67;;
67503;SDS011;54351;49.108;1.502;2023-02-01T00:28:38;529.77;;;489.07;;
67503;SDS011;54351;49.108;1.502;2023-02-01T00:31:04;593.88;;;547.45;;
67503;SDS011;54351;49.108;1.502;2023-02-01T00:33:31;575.40;;;531.90;;
67503;SDS011;54351;49.108;1.502;2023-02-01T00:35:57;558.63;;;516.00;;
67503;SDS011;54351;49.108;1.502;2023-02-01T00:38:24;617.55;;;570.63;;
67503;SDS011;54351;49.108;1.502;2023-02-01T00:40:50;580.08;;;535.63;;
67503;SDS011;54351;49.108;1.502;2023-02-01T00:43:16;518.22;;;479.30;;
67503;SDS011;54351;49.108;1.502;2023-02-01T00:45:42;602.38;;;556.10;;
67503;SDS011;54351;49.108;1.502;2023-02-01T00:48:08;421.25;;;388.13;;
67503;SDS011;54351;49.108;1.502;2023-02-01T00:50:34;512.53;;;474.13;;
67503;SDS011;54351;49.108;1.502;2023-02-01T00:53:00;430.45;;;396.88;;
67503;SDS011;54351;49.108;1.502;2023-02-01T00:55:26;430.25;;;398.17;;
67503;SDS011;54351;49.108;1.502;2023-02-01T00:57:52;371.60;;;342.95;;
67503;SDS011;54351;49.108;1.502;2023-02-01T01:00:18;378.55;;;351.10;;
67503;SDS011;54351;49.108;1.502;2023-02-01T01:02:45;334.10;;;309.30;;
67503;SDS011;54351;49.108;1.502;2023-02-01T01:05:11;316.10;;;293.02;;
67503;SDS011;54351;49.108;1.502;2023-02-01T01:07:37;349.00;;;323.70;;
67503;SDS011;54351;49.108;1.502;2023-02-01T01:10:03;327.40;;;303.25;;
67503;SDS011;54351;49.108;1.502;2023-02-01T01:12:30;287.80;;;266.92;;
67503;SDS011;54351;49.108;1.502;2023-02-01T01:14:56;287.17;;;265.73;;
67503;SDS011;54351;49.108;1.502;2023-02-01T01:17:22;293.10;;;271.80;;
67503;SDS011;54351;49.108;1.502;2023-02-01T01:19:48;307.65;;;285.63;;
67503;SDS011;54351;49.108;1.502;2023-02-01T01:22:14;276.42;;;256.65;;
67503;SDS011;54351;49.108;1.502;2023-02-01T01:24:40;265.92;;;246.75;;
67503;SDS011;54351;49.108;1.502;2023-02-01T01:27:06;271.63;;;252.75;;
67503;SDS011;54351;49.108;1.502;2023-02-01T01:29:32;282.98;;;261.95;;
67503;SDS011;54351;49.108;1.502;2023-02-01T01:31:58;290.50;;;269.88;;
67503;SDS011;54351;49.108;1.502;2023-02-01T01:34:24;278.95;;;259.30;;
67503;SDS011;54351;49.108;1.502;2023-02-01T01:36:50;395.08;;;367.58;;
67503;SDS011;54351;49.108;1.502;2023-02-01T01:39:16;313.40;;;289.75;;
67503;SDS011;54351;49.108;1.502;2023-02-01T01:41:42;356.38;;;330.50;;
67503;SDS011;54351;49.108;1.502;2023-02-01T01:46:53;381.88;;;354.95;;
67503;SDS011;54351;49.108;1.502;2023-02-01T01:49:20;371.50;;;343.30;;
67503;SDS011;54351;49.108;1.502;2023-02-01T01:51:48;360.70;;;333.52;;
67503;SDS011;54351;49.108;1.502;2023-02-01T01:54:18;467.23;;;430.52;;
67503;SDS011;54351;49.108;1.502;2023-02-01T01:56:46;397.97;;;367.00;;
67503;SDS011;54351;49.108;1.502;2023-02-01T01:59:13;379.55;;;350.77;;
67503;SDS011;54351;49.108;1.502;2023-02-01T02:01:40;359.90;;;334.10;;
67503;SDS011;54351;49.108;1.502;2023-02-01T02:04:06;350.85;;;323.88;;
67503;SDS011;54351;49.108;1.502;2023-02-01T02:09:13;537.28;;;495.88;;
67503;SDS011;54351;49.108;1.502;2023-02-01T02:11:39;499.75;;;461.70;;
67503;SDS011;54351;49.108;1.502;2023-02-01T02:14:06;451.02;;;414.98;;
67503;SDS011;54351;49.108;1.502;2023-02-01T02:16:46;498.25;;;459.50;;
67503;SDS011;54351;49.108;1.502;2023-02-01T02:21:47;613.83;;;566.25;;
67503;SDS011;54351;49.108;1.502;2023-02-01T02:27:02;558.63;;;515.33;;
67503;SDS011;54351;49.108;1.502;2023-02-01T02:29:54;433.70;;;399.88;;
67503;SDS011;54351;49.108;1.502;2023-02-01T02:40:18;350.42;;;325.38;;
67503;SDS011;54351;49.108;1.502;2023-02-01T02:42:52;227.18;;;210.25;;
67503;SDS011;54351;49.108;1.502;2023-02-01T02:45:47;280.60;;;260.23;;
67503;SDS011;54351;49.108;1.502;2023-02-01T02:56:51;341.33;;;317.20;;
67503;SDS011;54351;49.108;1.502;2023-02-01T02:59:38;392.35;;;361.75;;
67503;SDS011;54351;49.108;1.502;2023-02-01T03:02:23;380.05;;;351.02;;
67503;SDS011;54351;49.108;1.502;2023-02-01T03:05:10;442.50;;;408.10;;
67503;SDS011;54351;49.108;1.502;2023-02-01T03:10:10;358.17;;;331.58;;
67503;SDS011;54351;49.108;1.502;2023-02-01T03:12:42;579.03;;;534.97;;
67503;SDS011;54351;49.108;1.502;2023-02-01T03:15:21;523.65;;;483.13;;
67503;SDS011;54351;49.108;1.502;2023-02-01T03:17:48;541.55;;;499.13;;
67503;SDS011;54351;49.108;1.502;2023-02-01T03:20:16;467.98;;;430.63;;
67503;SDS011;54351;49.108;1.502;2023-02-01T03:22:44;585.95;;;539.03;;
67503;SDS011;54351;49.108;1.502;2023-02-01T03:25:13;457.23;;;419.92;;
67503;SDS011;54351;49.108;1.502;2023-02-01T03:27:43;534.95;;;491.63;;
67503;SDS011;54351;49.108;1.502;2023-02-01T03:32:43;571.85;;;526.80;;
67503;SDS011;54351;49.108;1.502;2023-02-01T03:35:39;595.65;;;548.28;;
67503;SDS011;54351;49.108;1.502;2023-02-01T03:40:32;609.72;;;561.35;;
67503;SDS011;54351;49.108;1.502;2023-02-01T03:43:00;466.52;;;428.65;;
67503;SDS011;54351;49.108;1.502;2023-02-01T03:45:30;516.47;;;475.05;;
67503;SDS011;54351;49.108;1.502;2023-02-01T03:47:57;589.17;;;542.55;;
67503;SDS011;54351;49.108;1.502;2023-02-01T03:50:25;437.55;;;401.90;;
67503;SDS011;54351;49.108;1.502;2023-02-01T03:55:21;618.97;;;569.42;;
67503;SDS011;54351;49.108;1.502;2023-02-01T03:57:52;573.88;;;528.03;;
67503;SDS011;54351;49.108;1.502;2023-02-01T04:00:20;674.92;;;621.47;;
67503;SDS011;54351;49.108;1.502;2023-02-01T04:02:49;673.17;;;619.97;;
67503;SDS011;54351;49.108;1.502;2023-02-01T04:05:16;612.78;;;564.38;;
67503;SDS011;54351;49.108;1.502;2023-02-01T04:07:42;611.72;;;562.08;;
67503;SDS011;54351;49.108;1.502;2023-02-01T04:10:09;696.67;;;640.22;;
67503;SDS011;54351;49.108;1.502;2023-02-01T04:12:35;633.60;;;582.15;;
67503;SDS011;54351;49.108;1.502;2023-02-01T04:15:01;706.92;;;650.25;;
67503;SDS011;54351;49.108;1.502;2023-02-01T04:17:28;587.78;;;540.45;;
67503;SDS011;54351;49.108;1.502;2023-02-01T04:19:54;629.47;;;578.60;;
67503;SDS011;54351;49.108;1.502;2023-02-01T04:22:20;602.65;;;553.28;;
67503;SDS011;54351;49.108;1.502;2023-02-01T04:24:46;643.70;;;590.80;;
67503;SDS011;54351;49.108;1.502;2023-02-01T04:27:12;622.17;;;569.97;;
67503;SDS011;54351;49.108;1.502;2023-02-01T04:29:39;585.53;;;537.10;;
67503;SDS011;54351;49.108;1.502;2023-02-01T04:32:08;615.35;;;563.72;;
67503;SDS011;54351;49.108;1.502;2023-02-01T04:34:34;529.40;;;485.63;;
67503;SDS011;54351;49.108;1.502;2023-02-01T04:37:00;633.40;;;581.35;;
67503;SDS011;54351;49.108;1.502;2023-02-01T04:39:27;667.38;;;611.55;;
67503;SDS011;54351;49.108;1.502;2023-02-01T04:41:53;606.53;;;555.83;;
67503;SDS011;54351;49.108;1.502;2023-02-01T04:44:19;583.45;;;534.65;;
67503;SDS011;54351;49.108;1.502;2023-02-01T04:46:45;587.67;;;537.85;;
67503;SDS011;54351;49.108;1.502;2023-02-01T04:49:12;690.90;;;632.08;;
67503;SDS011;54351;49.108;1.502;2023-02-01T04:51:39;593.03;;;544.60;;
67503;SDS011;54351;49.108;1.502;2023-02-01T04:54:05;715.45;;;656.35;;
67503;SDS011;54351;49.108;1.502;2023-02-01T04:56:31;636.25;;;583.05;;
67503;SDS011;54351;49.108;1.502;2023-02-01T04:58:59;603.22;;;553.45;;
67503;SDS011;54351;49.108;1.502;2023-02-01T05:01:27;671.60;;;616.15;;
67503;SDS011;54351;49.108;1.502;2023-02-01T05:03:53;535.42;;;490.35;;
67503;SDS011;54351;49.108;1.502;2023-02-01T05:06:20;643.72;;;589.53;;
67503;SDS011;54351;49.108;1.502;2023-02-01T05:08:46;601.47;;;550.72;;
67503;SDS011;54351;49.108;1.502;2023-02-01T05:11:12;593.17;;;543.72;;
67503;SDS011;54351;49.108;1.502;2023-02-01T05:13:57;608.13;;;556.67;;
67503;SDS011;54351;49.108;1.502;2023-02-01T05:16:23;720.25;;;656.95;;
67503;SDS011;54351;49.108;1.502;2023-02-01T05:18:50;734.03;;;671.20;;
67503;SDS011;54351;49.108;1.502;2023-02-01T05:21:16;636.15;;;582.90;;
67503;SDS011;54351;49.108;1.502;2023-02-01T05:23:42;695.88;;;637.75;;
67503;SDS011;54351;49.108;1.502;2023-02-01T05:26:26;548.30;;;501.10;;
67503;SDS011;54351;49.108;1.502;2023-02-01T05:28:52;675.42;;;617.38;;
67503;SDS011;54351;49.108;1.502;2023-02-01T05:31:18;757.15;;;692.75;;
67503;SDS011;54351;49.108;1.502;2023-02-01T05:33:45;688.30;;;630.10;;
67503;SDS011;54351;49.108;1.502;2023-02-01T05:36:11;730.20;;;668.22;;
67503;SDS011;54351;49.108;1.502;2023-02-01T05:38:37;617.72;;;565.33;;
67503;SDS011;54351;49.108;1.502;2023-02-01T05:41:03;760.58;;;695.13;;
67503;SDS011;54351;49.108;1.502;2023-02-01T05:43:29;613.47;;;561.67;;
67503;SDS011;54351;49.108;1.502;2023-02-01T05:45:55;654.40;;;600.13;;
67503;SDS011;54351;49.108;1.502;2023-02-01T05:48:21;628.83;;;576.53;;
67503;SDS011;54351;49.108;1.502;2023-02-01T05:50:47;706.25;;;646.97;;
67503;SDS011;54351;49.108;1.502;2023-02-01T05:53:13;667.05;;;611.63;;
67503;SDS011;54351;49.108;1.502;2023-02-01T05:55:39;575.58;;;526.85;;
67503;SDS011;54351;49.108;1.502;2023-02-01T05:58:05;703.95;;;645.25;;
67503;SDS011;54351;49.108;1.502;2023-02-01T06:00:31;610.30;;;558.95;;
67503;SDS011;54351;49.108;1.502;2023-02-01T06:02:57;700.30;;;642.13;;
67503;SDS011;54351;49.108;1.502;2023-02-01T06:05:23;712.13;;;653.50;;
67503;SDS011;54351;49.108;1.502;2023-02-01T06:07:50;686.03;;;629.47;;
67503;SDS011;54351;49.108;1.502;2023-02-01T06:10:16;683.65;;;626.38;;
67503;SDS011;54351;49.108;1.502;2023-02-01T06:12:43;690.28;;;633.15;;
67503;SDS011;54351;49.108;1.502;2023-02-01T06:15:10;702.42;;;644.47;;
67503;SDS011;54351;49.108;1.502;2023-02-01T06:17:37;716.80;;;657.70;;
67503;SDS011;54351;49.108;1.502;2023-02-01T06:20:04;710.63;;;651.90;;
67503;SDS011;54351;49.108;1.502;2023-02-01T06:22:32;675.17;;;619.45;;
67503;SDS011;54351;49.108;1.502;2023-02-01T06:24:58;694.65;;;637.38;;
67503;SDS011;54351;49.108;1.502;2023-02-01T06:27:24;672.33;;;617.78;;
67503;SDS011;54351;49.108;1.502;2023-02-01T06:29:50;647.33;;;594.60;;
67503;SDS011;54351;49.108;1.502;2023-02-01T06:32:16;568.00;;;521.30;;
67503;SDS011;54351;49.108;1.502;2023-02-01T06:34:43;641.47;;;588.17;;
67503;SDS011;54351;49.108;1.502;2023-02-01T06:37:09;701.45;;;643.17;;
67503;SDS011;54351;49.108;1.502;2023-02-01T06:39:36;675.92;;;620.25;;
67503;SDS011;54351;49.108;1.502;2023-02-01T06:42:02;696.45;;;638.40;;
67503;SDS011;54351;49.108;1.502;2023-02-01T06:44:28;711.20;;;652.33;;
67503;SDS011;54351;49.108;1.502;2023-02-01T06:46:55;522.92;;;478.70;;
67503;SDS011;54351;49.108;1.502;2023-02-01T06:49:21;549.83;;;503.75;;
67503;SDS011;54351;49.108;1.502;2023-02-01T06:51:47;681.58;;;624.85;;
67503;SDS011;54351;49.108;1.502;2023-02-01T06:54:13;681.53;;;625.13;;
67503;SDS011;54351;49.108;1.502;2023-02-01T06:56:40;653.95;;;599.28;;
67503;SDS011;54351;49.108;1.502;2023-02-01T06:59:06;625.97;;;573.08;;
67503;SDS011;54351;49.108;1.502;2023-02-01T07:01:33;697.70;;;639.85;;
67503;SDS011;54351;49.108;1.502;2023-02-01T07:03:59;667.80;;;611.70;;
67503;SDS011;54351;49.108;1.502;2023-02-01T07:06:25;681.58;;;624.35;;
67503;SDS011;54351;49.108;1.502;2023-02-01T07:08:51;711.53;;;651.42;;
67503;SDS011;54351;49.108;1.502;2023-02-01T07:11:20;756.13;;;692.25;;
67503;SDS011;54351;49.108;1.502;2023-02-01T07:13:47;746.42;;;682.72;;
67503;SDS011;54351;49.108;1.502;2023-02-01T07:16:14;728.67;;;667.22;;
67503;SDS011;54351;49.108;1.502;2023-02-01T07:18:40;677.45;;;619.15;;
67503;SDS011;54351;49.108;1.502;2023-02-01T07:21:07;646.83;;;591.20;;
67503;SDS011;54351;49.108;1.502;2023-02-01T07:23:33;735.83;;;672.13;;
67503;SDS011;54351;49.108;1.502;2023-02-01T07:26:00;779.22;;;710.83;;
67503;SDS011;54351;49.108;1.502;2023-02-01T07:28:27;791.45;;;722.33;;
67503;SDS011;54351;49.108;1.502;2023-02-01T07:30:54;705.63;;;644.85;;
67503;SDS011;54351;49.108;1.502;2023-02-01T07:33:21;696.60;;;635.83;;
67503;SDS011;54351;49.108;1.502;2023-02-01T07:35:47;745.00;;;679.30;;
67503;SDS011;54351;49.108;1.502;2023-02-01T07:38:14;721.53;;;658.58;;
67503;SDS011;54351;49.108;1.502;2023-02-01T07:40:40;766.20;;;698.83;;
67503;SDS011;54351;49.108;1.502;2023-02-01T07:43:07;696.28;;;635.45;;
67503;SDS011;54351;49.108;1.502;2023-02-01T07:45:36;778.13;;;709.63;;
67503;SDS011;54351;49.108;1.502;2023-02-01T07:48:02;743.22;;;676.67;;
67503;SDS011;54351;49.108;1.502;2023-02-01T07:50:29;752.08;;;685.55;;
67503;SDS011;54351;49.108;1.502;2023-02-01T07:52:55;741.38;;;675.67;;
67503;SDS011;54351;49.108;1.502;2023-02-01T07:55:21;726.40;;;662.13;;
67503;SDS011;54351;49.108;1.502;2023-02-01T07:57:47;697.40;;;636.42;;
67503;SDS011;54351;49.108;1.502;2023-02-01T08:00:13;696.30;;;634.97;;
67503;SDS011;54351;49.108;1.502;2023-02-01T08:02:58;737.67;;;673.10;;
67503;SDS011;54351;49.108;1.502;2023-02-01T08:05:24;728.88;;;665.03;;
67503;SDS011;54351;49.108;1.502;2023-02-01T08:07:51;682.70;;;622.58;;
67503;SDS011;54351;49.108;1.502;2023-02-01T08:10:17;743.33;;;678.83;;
67503;SDS011;54351;49.108;1.502;2023-02-01T08:12:44;748.60;;;682.75;;
67503;SDS011;54351;49.108;1.502;2023-02-01T08:15:14;788.35;;;720.33;;
67503;SDS011;54351;49.108;1.502;2023-02-01T08:17:45;698.85;;;638.20;;
67503;SDS011;54351;49.108;1.502;2023-02-01T08:20:11;778.88;;;710.85;;
67503;SDS011;54351;49.108;1.502;2023-02-01T08:22:38;767.08;;;700.88;;
67503;SDS011;54351;49.108;1.502;2023-02-01T08:25:04;809.85;;;739.45;;
67503;SDS011;54351;49.108;1.502;2023-02-01T08:27:34;733.03;;;669.38;;
67503;SDS011;54351;49.108;1.502;2023-02-01T08:30:00;797.22;;;728.65;;
67503;SDS011;54351;49.108;1.502;2023-02-01T08:32:26;736.08;;;673.08;;
67503;SDS011;54351;49.108;1.502;2023-02-01T08:34:52;742.92;;;678.47;;
67503;SDS011;54351;49.108;1.502;2023-02-01T08:37:18;760.22;;;695.90;;
67503;SDS011;54351;49.108;1.502;2023-02-01T08:39:44;749.97;;;686.63;;
67503;SDS011;54351;49.108;1.502;2023-02-01T08:42:12;694.17;;;636.40;;
67503;SDS011;54351;49.108;1.502;2023-02-01T08:44:56;604.30;;;553.75;;
67503;SDS011;54351;49.108;1.502;2023-02-01T08:47:23;701.95;;;642.83;;
67503;SDS011;54351;49.108;1.502;2023-02-01T08:49:49;666.88;;;610.47;;
67503;SDS011;54351;49.108;1.502;2023-02-01T08:52:15;688.13;;;631.53;;
67503;SDS011;54351;49.108;1.502;2023-02-01T08:54:41;678.30;;;622.28;;
67503;SDS011;54351;49.108;1.502;2023-02-01T08:57:07;648.80;;;594.88;;
67503;SDS011;54351;49.108;1.502;2023-02-01T08:59:34;500.52;;;459.30;;
67503;SDS011;54351;49.108;1.502;2023-02-01T09:02:00;614.22;;;565.67;;
67503;SDS011;54351;49.108;1.502;2023-02-01T09:04:26;677.55;;;622.85;;
67503;SDS011;54351;49.108;1.502;2023-02-01T09:06:52;625.30;;;574.55;;
67503;SDS011;54351;49.108;1.502;2023-02-01T09:09:21;587.83;;;539.15;;
67503;SDS011;54351;49.108;1.502;2023-02-01T09:11:47;606.72;;;557.30;;
67503;SDS011;54351;49.108;1.502;2023-02-01T09:14:14;588.53;;;541.25;;
67503;SDS011;54351;49.108;1.502;2023-02-01T09:16:40;572.65;;;525.33;;
67503;SDS011;54351;49.108;1.502;2023-02-01T09:19:06;509.05;;;468.80;;
67503;SDS011;54351;49.108;1.502;2023-02-01T09:21:32;488.67;;;449.63;;
67503;SDS011;54351;49.108;1.502;2023-02-01T09:23:58;414.73;;;382.75;;
67503;SDS011;54351;49.108;1.502;2023-02-01T09:26:24;540.20;;;497.45;;
67503;SDS011;54351;49.108;1.502;2023-02-01T09:28:51;528.97;;;486.45;;
67503;SDS011;54351;49.108;1.502;2023-02-01T09:31:18;490.80;;;450.95;;
67503;SDS011;54351;49.108;1.502;2023-02-01T09:33:44;521.50;;;479.98;;
67503;SDS011;54351;49.108;1.502;2023-02-01T09:36:10;462.83;;;424.63;;
67503;SDS011;54351;49.108;1.502;2023-02-01T09:38:36;479.42;;;441.15;;
67503;SDS011;54351;49.108;1.502;2023-02-01T09:41:07;534.28;;;491.48;;
67503;SDS011;54351;49.108;1.502;2023-02-01T09:43:41;446.50;;;411.08;;
67503;SDS011;54351;49.108;1.502;2023-02-01T09:46:29;493.23;;;453.98;;
67503;SDS011;54351;49.108;1.502;2023-02-01T09:48:56;475.73;;;437.23;;
67503;SDS011;54351;49.108;1.502;2023-02-01T09:51:25;564.42;;;519.67;;
67503;SDS011;54351;49.108;1.502;2023-02-01T09:59:28;421.92;;;389.00;;
67503;SDS011;54351;49.108;1.502;2023-02-01T10:01:56;483.17;;;444.17;;
67503;SDS011;54351;49.108;1.502;2023-02-01T10:04:24;424.58;;;391.27;;
67503;SDS011;54351;49.108;1.502;2023-02-01T10:20:43;466.48;;;430.15;;
67503;SDS011;54351;49.108;1.502;2023-02-01T10:25:37;594.92;;;548.75;;
67503;SDS011;54351;49.108;1.502;2023-02-01T10:28:06;390.77;;;359.70;;
67503;SDS011;54351;49.108;1.502;2023-02-01T10:30:39;461.25;;;425.48;;
67503;SDS011;54351;49.108;1.502;2023-02-01T10:33:18;475.90;;;437.88;;
67503;SDS011;54351;49.108;1.502;2023-02-01T10:35:47;362.60;;;335.00;;
67503;SDS011;54351;49.108;1.502;2023-02-01T10:38:24;424.20;;;391.80;;
67503;SDS011;54351;49.108;1.502;2023-02-01T10:40:51;362.80;;;335.33;;
67503;SDS011;54351;49.108;1.502;2023-02-01T10:43:18;307.17;;;284.63;;
67503;SDS011;54351;49.108;1.502;2023-02-01T10:45:45;335.42;;;310.15;;
67503;SDS011;54351;49.108;1.502;2023-02-01T10:48:11;322.95;;;299.60;;
67503;SDS011;54351;49.108;1.502;2023-02-01T10:50:58;391.88;;;362.80;;
67503;SDS011;54351;49.108;1.502;2023-02-01T10:53:25;361.83;;;334.75;;
67503;SDS011;54351;49.108;1.502;2023-02-01T10:55:55;369.87;;;341.83;;
67503;SDS011;54351;49.108;1.502;2023-02-01T10:58:28;280.35;;;259.48;;
67503;SDS011;54351;49.108;1.502;2023-02-01T11:01:00;255.57;;;237.52;;
67503;SDS011;54351;49.108;1.502;2023-02-01T11:05:59;248.60;;;230.85;;
67503;SDS011;54351;49.108;1.502;2023-02-01T11:08:25;254.23;;;236.90;;
67503;SDS011;54351;49.108;1.502;2023-02-01T11:10:58;285.20;;;266.17;;
67503;SDS011;54351;49.108;1.502;2023-02-01T11:13:28;258.35;;;242.15;;
67503;SDS011;54351;49.108;1.502;2023-02-01T11:15:55;252.00;;;235.43;;
67503;SDS011;54351;49.108;1.502;2023-02-01T11:18:27;273.02;;;255.40;;
67503;SDS011;54351;49.108;1.502;2023-02-01T11:20:54;270.80;;;253.55;;
67503;SDS011;54351;49.108;1.502;2023-02-01T11:23:23;219.95;;;205.40;;
67503;SDS011;54351;49.108;1.502;2023-02-01T11:25:53;264.45;;;247.15;;
67503;SDS011;54351;49.108;1.502;2023-02-01T11:28:21;234.35;;;217.40;;
67503;SDS011;54351;49.108;1.502;2023-02-01T11:30:48;168.30;;;154.50;;
67503;SDS011;54351;49.108;1.502;2023-02-01T11:33:20;173.95;;;160.07;;
67503;SDS011;54351;49.108;1.502;2023-02-01T11:35:49;136.02;;;124.75;;
67503;SDS011;54351;49.108;1.502;2023-02-01T11:40:43;135.93;;;124.35;;
67503;SDS011;54351;49.108;1.502;2023-02-01T11:45:38;158.52;;;145.73;;
67503;SDS011;54351;49.108;1.502;2023-02-01T11:48:15;137.98;;;125.85;;
67503;SDS011;54351;49.108;1.502;2023-02-01T11:53:38;149.32;;;137.18;;
67503;SDS011;54351;49.108;1.502;2023-02-01T11:58:43;182.60;;;165.73;;
67503;SDS011;54351;49.108;1.502;2023-02-01T12:14:13;128.82;;;117.75;;
67503;SDS011;54351;49.108;1.502;2023-02-01T12:16:49;139.10;;;127.53;;
67503;SDS011;54351;49.108;1.502;2023-02-01T12:19:28;124.68;;;115.00;;
67503;SDS011;54351;49.108;1.502;2023-02-01T12:32:20;179.52;;;166.23;;
67503;SDS011;54351;49.108;1.502;2023-02-01T12:42:24;201.25;;;187.32;;
67503;SDS011;54351;49.108;1.502;2023-02-01T12:44:54;191.35;;;175.77;;
67503;SDS011;54351;49.108;1.502;2023-02-01T12:47:27;156.05;;;144.60;;
67503;SDS011;54351;49.108;1.502;2023-02-01T12:50:00;175.75;;;161.10;;
67503;SDS011;54351;49.108;1.502;2023-02-01T12:52:30;137.18;;;126.30;;
67503;SDS011;54351;49.108;1.502;2023-02-01T12:57:33;195.88;;;181.55;;
67503;SDS011;54351;49.108;1.502;2023-02-01T13:00:05;188.00;;;173.30;;
67503;SDS011;54351;49.108;1.502;2023-02-01T13:02:42;200.57;;;185.93;;
67503;SDS011;54351;49.108;1.502;2023-02-01T13:05:20;210.70;;;195.02;;
67503;SDS011;54351;49.108;1.502;2023-02-01T13:10:31;372.23;;;341.55;;
67503;SDS011;54351;49.108;1.502;2023-02-01T13:13:10;529.30;;;489.27;;
67503;SDS011;54351;49.108;1.502;2023-02-01T13:15:39;430.08;;;397.15;;
67503;SDS011;54351;49.108;1.502;2023-02-01T13:18:06;466.35;;;431.75;;
67503;SDS011;54351;49.108;1.502;2023-02-01T13:20:39;458.50;;;424.45;;
67503;SDS011;54351;49.108;1.502;2023-02-01T13:23:15;515.83;;;479.17;;
67503;SDS011;54351;49.108;1.502;2023-02-01T13:25:48;454.25;;;421.75;;
67503;SDS011;54351;49.108;1.502;2023-02-01T13:28:16;517.95;;;480.95;;
67503;SDS011;54351;49.108;1.502;2023-02-01T13:30:52;453.45;;;421.27;;
67503;SDS011;54351;49.108;1.502;2023-02-01T13:33:39;476.58;;;443.15;;
67503;SDS011;54351;49.108;1.502;2023-02-01T13:43:31;413.95;;;384.95;;
67503;SDS011;54351;49.108;1.502;2023-02-01T13:46:01;426.55;;;396.05;;
67503;SDS011;54351;49.108;1.502;2023-02-01T13:48:38;392.37;;;363.20;;
67503;SDS011;54351;49.108;1.502;2023-02-01T13:51:05;421.48;;;390.02;;
67503;SDS011;54351;49.108;1.502;2023-02-01T13:53:32;458.50;;;425.60;;
67503;SDS011;54351;49.108;1.502;2023-02-01T13:56:02;410.52;;;381.50;;
67503;SDS011;54351;49.108;1.502;2023-02-01T13:58:41;350.35;;;324.88;;
67503;SDS011;54351;49.108;1.502;2023-02-01T14:11:35;464.80;;;431.95;;
67503;SDS011;54351;49.108;1.502;2023-02-01T14:16:41;323.65;;;299.40;;
67503;SDS011;54351;49.108;1.502;2023-02-01T14:19:08;424.60;;;393.63;;
67503;SDS011;54351;49.108;1.502;2023-02-01T14:21:35;311.40;;;289.40;;
67503;SDS011;54351;49.108;1.502;2023-02-01T14:24:31;234.48;;;217.30;;
67503;SDS011;54351;49.108;1.502;2023-02-01T14:27:19;260.35;;;243.15;;
67503;SDS011;54351;49.108;1.502;2023-02-01T14:29:44;263.60;;;244.30;;
67503;SDS011;54351;49.108;1.502;2023-02-01T14:32:20;302.55;;;281.13;;
67503;SDS011;54351;49.108;1.502;2023-02-01T14:45:45;300.08;;;279.45;;
67503;SDS011;54351;49.108;1.502;2023-02-01T14:47:41;334.13;;;309.75;;
67503;SDS011;54351;49.108;1.502;2023-02-01T14:53:18;347.90;;;323.73;;
67503;SDS011;54351;49.108;1.502;2023-02-01T15:00:57;424.90;;;394.92;;
67503;SDS011;54351;49.108;1.502;2023-02-01T15:06:12;366.58;;;340.83;;
67503;SDS011;54351;49.108;1.502;2023-02-01T15:08:39;460.77;;;428.10;;
67503;SDS011;54351;49.108;1.502;2023-02-01T15:11:08;360.00;;;334.92;;
67503;SDS011;54351;49.108;1.502;2023-02-01T15:13:37;331.85;;;308.83;;
67503;SDS011;54351;49.108;1.502;2023-02-01T15:16:13;372.95;;;346.20;;
67503;SDS011;54351;49.108;1.502;2023-02-01T15:18:40;430.10;;;400.25;;
67503;SDS011;54351;49.108;1.502;2023-02-01T15:21:12;330.77;;;306.95;;
67503;SDS011;54351;49.108;1.502;2023-02-01T15:23:40;365.20;;;339.55;;
67503;SDS011;54351;49.108;1.502;2023-02-01T15:26:06;332.98;;;310.45;;
67503;SDS011;54351;49.108;1.502;2023-02-01T15:28:32;231.57;;;214.88;;
67503;SDS011;54351;49.108;1.502;2023-02-01T15:31:00;270.58;;;251.52;;
67503;SDS011;54351;49.108;1.502;2023-02-01T15:33:26;285.33;;;265.13;;
67503;SDS011;54351;49.108;1.502;2023-02-01T15:35:54;259.77;;;241.48;;
67503;SDS011;54351;49.108;1.502;2023-02-01T15:40:59;265.45;;;246.95;;
67503;SDS011;54351;49.108;1.502;2023-02-01T15:43:26;264.77;;;246.10;;
67503;SDS011;54351;49.108;1.502;2023-02-01T15:45:55;367.77;;;341.92;;
67503;SDS011;54351;49.108;1.502;2023-02-01T15:48:22;231.73;;;215.90;;
67503;SDS011;54351;49.108;1.502;2023-02-01T15:50:49;346.92;;;322.58;;
67503;SDS011;54351;49.108;1.502;2023-02-01T15:53:17;313.55;;;291.08;;
67503;SDS011;54351;49.108;1.502;2023-02-01T15:55:45;274.35;;;254.48;;
67503;SDS011;54351;49.108;1.502;2023-02-01T15:58:20;255.43;;;237.38;;
67503;SDS011;54351;49.108;1.502;2023-02-01T16:00:56;243.30;;;226.82;;
67503;SDS011;54351;49.108;1.502;2023-02-01T16:06:02;311.80;;;289.35;;
67503;SDS011;54351;49.108;1.502;2023-02-01T16:08:29;252.18;;;234.18;;
67503;SDS011;54351;49.108;1.502;2023-02-01T16:13:35;377.17;;;350.42;;
67503;SDS011;54351;49.108;1.502;2023-02-01T16:16:01;327.90;;;303.85;;
67503;SDS011;54351;49.108;1.502;2023-02-01T16:18:29;412.67;;;383.33;;
67503;SDS011;54351;49.108;1.502;2023-02-01T16:20:55;409.45;;;380.13;;
67503;SDS011;54351;49.108;1.502;2023-02-01T16:23:21;339.13;;;314.23;;
67503;SDS011;54351;49.108;1.502;2023-02-01T16:25:47;419.85;;;389.80;;
67503;SDS011;54351;49.108;1.502;2023-02-01T16:28:13;367.17;;;340.42;;
67503;SDS011;54351;49.108;1.502;2023-02-01T16:30:39;391.02;;;361.25;;
67503;SDS011;54351;49.108;1.502;2023-02-01T16:33:06;390.75;;;361.77;;
67503;SDS011;54351;49.108;1.502;2023-02-01T16:35:36;416.08;;;385.67;;
67503;SDS011;54351;49.108;1.502;2023-02-01T16:38:03;383.58;;;354.50;;
67503;SDS011;54351;49.108;1.502;2023-02-01T16:40:33;463.02;;;427.98;;
67503;SDS011;54351;49.108;1.502;2023-02-01T16:43:00;499.88;;;461.60;;